sensor_id;sensor_type;location;lat;lon;timestamp;P1;durP1;ratioP1;P2;durP2;ratioP2
17235;SDS011;8734;59.272;17.780;2022-11-06T00:00:32;16.50;;;2.10;;
17235;SDS011;8734;59.272;17.780;2022-11-06T00:03:01;15.03;;;1.70;;
17235;SDS011;8734;59.272;17.780;2022-11-06T00:05:30;5.00;;;1.47;;
17235;SDS011;8734;59.272;17.780;2022-11-06T00:08:24;11.43;;;1.43;;
17235;SDS011;8734;59.272;17.780;2022-11-06T00:10:54;8.70;;;1.93;;
17235;SDS011;8734;59.272;17.780;2022-11-06T00:13:23;7.77;;;1.60;;
17235;SDS011;8734;59.272;17.780;2022-11-06T00:15:52;11.00;;;2.20;;
17235;SDS011;8734;59.272;17.780;2022-11-06T00:18:23;9.10;;;1.53;;
17235;SDS011;8734;59.272;17.780;2022-11-06T00:20:52;10.47;;;1.67;;
17235;SDS011;8734;59.272;17.780;2022-11-06T00:23:20;8.57;;;1.63;;
17235;SDS011;8734;59.272;17.780;2022-11-06T00:25:49;10.80;;;1.77;;
17235;SDS011;8734;59.272;17.780;2022-11-06T00:28:18;6.43;;;1.40;;
17235;SDS011;8734;59.272;17.780;2022-11-06T00:30:46;8.30;;;1.77;;
17235;SDS011;8734;59.272;17.780;2022-11-06T00:33:16;5.00;;;1.17;;
17235;SDS011;8734;59.272;17.780;2022-11-06T00:35:44;11.97;;;1.97;;
17235;SDS011;8734;59.272;17.780;2022-11-06T00:38:12;8.20;;;1.47;;
17235;SDS011;8734;59.272;17.780;2022-11-06T00:40:40;6.87;;;1.53;;
17235;SDS011;8734;59.272;17.780;2022-11-06T00:43:09;13.63;;;1.53;;
17235;SDS011;8734;59.272;17.780;2022-11-06T00:45:37;10.23;;;1.93;;
17235;SDS011;8734;59.272;17.780;2022-11-06T00:48:05;7.50;;;1.73;;
17235;SDS011;8734;59.272;17.780;2022-11-06T00:50:34;5.87;;;1.30;;
17235;SDS011;8734;59.272;17.780;2022-11-06T00:53:03;5.40;;;1.50;;
17235;SDS011;8734;59.272;17.780;2022-11-06T00:55:32;9.13;;;1.63;;
17235;SDS011;8734;59.272;17.780;2022-11-06T00:58:00;9.03;;;1.50;;
17235;SDS011;8734;59.272;17.780;2022-11-06T01:00:28;7.30;;;1.50;;
17235;SDS011;8734;59.272;17.780;2022-11-06T01:02:57;6.17;;;1.50;;
17235;SDS011;8734;59.272;17.780;2022-11-06T01:05:25;4.47;;;1.40;;
17235;SDS011;8734;59.272;17.780;2022-11-06T01:07:55;8.27;;;1.23;;
17235;SDS011;8734;59.272;17.780;2022-11-06T01:10:23;7.80;;;2.07;;
17235;SDS011;8734;59.272;17.780;2022-11-06T01:12:51;9.93;;;1.40;;
17235;SDS011;8734;59.272;17.780;2022-11-06T01:15:19;15.20;;;1.87;;
17235;SDS011;8734;59.272;17.780;2022-11-06T01:17:47;4.53;;;1.80;;
17235;SDS011;8734;59.272;17.780;2022-11-06T01:20:15;10.37;;;1.43;;
17235;SDS011;8734;59.272;17.780;2022-11-06T01:22:44;13.80;;;1.57;;
17235;SDS011;8734;59.272;17.780;2022-11-06T01:25:15;4.50;;;1.20;;
17235;SDS011;8734;59.272;17.780;2022-11-06T01:27:44;9.23;;;1.30;;
17235;SDS011;8734;59.272;17.780;2022-11-06T01:30:12;9.90;;;1.50;;
17235;SDS011;8734;59.272;17.780;2022-11-06T01:32:41;8.30;;;1.67;;
17235;SDS011;8734;59.272;17.780;2022-11-06T01:35:09;5.50;;;1.23;;
17235;SDS011;8734;59.272;17.780;2022-11-06T01:37:37;7.03;;;1.30;;
17235;SDS011;8734;59.272;17.780;2022-11-06T01:40:05;4.83;;;1.10;;
17235;SDS011;8734;59.272;17.780;2022-11-06T01:42:35;4.33;;;1.30;;
17235;SDS011;8734;59.272;17.780;2022-11-06T01:45:06;9.80;;;1.50;;
17235;SDS011;8734;59.272;17.780;2022-11-06T01:47:50;7.93;;;1.20;;
17235;SDS011;8734;59.272;17.780;2022-11-06T01:50:18;10.63;;;1.57;;
17235;SDS011;8734;59.272;17.780;2022-11-06T01:52:47;7.97;;;1.80;;
17235;SDS011;8734;59.272;17.780;2022-11-06T01:55:18;7.87;;;1.60;;
17235;SDS011;8734;59.272;17.780;2022-11-06T01:57:52;6.37;;;1.40;;
17235;SDS011;8734;59.272;17.780;2022-11-06T02:00:21;5.90;;;1.67;;
17235;SDS011;8734;59.272;17.780;2022-11-06T02:02:51;6.67;;;1.70;;
17235;SDS011;8734;59.272;17.780;2022-11-06T02:05:20;12.47;;;1.50;;
17235;SDS011;8734;59.272;17.780;2022-11-06T02:07:48;8.60;;;1.83;;
17235;SDS011;8734;59.272;17.780;2022-11-06T02:10:17;8.77;;;1.10;;
17235;SDS011;8734;59.272;17.780;2022-11-06T02:12:49;5.23;;;1.43;;
17235;SDS011;8734;59.272;17.780;2022-11-06T02:15:27;5.77;;;1.47;;
17235;SDS011;8734;59.272;17.780;2022-11-06T02:18:08;7.67;;;2.07;;
17235;SDS011;8734;59.272;17.780;2022-11-06T02:21:00;3.10;;;1.00;;
17235;SDS011;8734;59.272;17.780;2022-11-06T02:23:55;6.40;;;1.53;;
17235;SDS011;8734;59.272;17.780;2022-11-06T02:26:51;7.30;;;1.47;;
17235;SDS011;8734;59.272;17.780;2022-11-06T02:29:27;4.27;;;1.30;;
17235;SDS011;8734;59.272;17.780;2022-11-06T02:32:01;5.37;;;1.70;;
17235;SDS011;8734;59.272;17.780;2022-11-06T02:34:35;6.93;;;1.47;;
17235;SDS011;8734;59.272;17.780;2022-11-06T02:37:06;7.63;;;1.40;;
17235;SDS011;8734;59.272;17.780;2022-11-06T02:39:38;4.33;;;1.20;;
17235;SDS011;8734;59.272;17.780;2022-11-06T02:42:11;9.07;;;1.50;;
17235;SDS011;8734;59.272;17.780;2022-11-06T02:44:41;7.73;;;2.47;;
17235;SDS011;8734;59.272;17.780;2022-11-06T02:47:12;4.53;;;1.10;;
17235;SDS011;8734;59.272;17.780;2022-11-06T02:49:42;12.10;;;1.30;;
17235;SDS011;8734;59.272;17.780;2022-11-06T02:52:15;6.17;;;1.70;;
17235;SDS011;8734;59.272;17.780;2022-11-06T02:54:51;6.67;;;1.17;;
17235;SDS011;8734;59.272;17.780;2022-11-06T02:57:25;3.33;;;1.20;;
17235;SDS011;8734;59.272;17.780;2022-11-06T02:59:57;5.90;;;1.50;;
17235;SDS011;8734;59.272;17.780;2022-11-06T03:02:29;8.23;;;1.77;;
17235;SDS011;8734;59.272;17.780;2022-11-06T03:05:04;9.43;;;1.63;;
17235;SDS011;8734;59.272;17.780;2022-11-06T03:07:36;14.20;;;1.40;;
17235;SDS011;8734;59.272;17.780;2022-11-06T03:10:08;4.97;;;1.43;;
17235;SDS011;8734;59.272;17.780;2022-11-06T03:12:42;5.30;;;1.63;;
17235;SDS011;8734;59.272;17.780;2022-11-06T03:15:23;10.93;;;1.57;;
17235;SDS011;8734;59.272;17.780;2022-11-06T03:17:55;5.70;;;1.40;;
17235;SDS011;8734;59.272;17.780;2022-11-06T03:20:29;3.23;;;1.33;;
17235;SDS011;8734;59.272;17.780;2022-11-06T03:23:05;3.73;;;1.23;;
17235;SDS011;8734;59.272;17.780;2022-11-06T03:25:42;5.63;;;1.43;;
17235;SDS011;8734;59.272;17.780;2022-11-06T03:28:17;5.27;;;1.57;;
17235;SDS011;8734;59.272;17.780;2022-11-06T03:30:53;9.13;;;1.40;;
17235;SDS011;8734;59.272;17.780;2022-11-06T03:33:27;10.33;;;1.77;;
17235;SDS011;8734;59.272;17.780;2022-11-06T03:36:00;12.03;;;2.57;;
17235;SDS011;8734;59.272;17.780;2022-11-06T03:38:35;7.87;;;1.73;;
17235;SDS011;8734;59.272;17.780;2022-11-06T03:41:08;4.37;;;1.00;;
17235;SDS011;8734;59.272;17.780;2022-11-06T03:43:41;14.27;;;1.50;;
17235;SDS011;8734;59.272;17.780;2022-11-06T03:46:14;5.80;;;1.40;;
17235;SDS011;8734;59.272;17.780;2022-11-06T03:48:46;2.53;;;1.20;;
17235;SDS011;8734;59.272;17.780;2022-11-06T03:51:18;1.47;;;1.07;;
17235;SDS011;8734;59.272;17.780;2022-11-06T03:53:49;3.57;;;1.53;;
17235;SDS011;8734;59.272;17.780;2022-11-06T03:56:21;9.93;;;2.00;;
17235;SDS011;8734;59.272;17.780;2022-11-06T03:58:54;5.00;;;1.30;;
17235;SDS011;8734;59.272;17.780;2022-11-06T04:01:26;9.43;;;1.53;;
17235;SDS011;8734;59.272;17.780;2022-11-06T04:04:00;9.90;;;1.57;;
17235;SDS011;8734;59.272;17.780;2022-11-06T04:06:32;6.47;;;1.43;;
17235;SDS011;8734;59.272;17.780;2022-11-06T04:09:04;4.03;;;1.70;;
17235;SDS011;8734;59.272;17.780;2022-11-06T04:11:52;4.03;;;1.50;;
17235;SDS011;8734;59.272;17.780;2022-11-06T04:14:42;8.27;;;1.27;;
17235;SDS011;8734;59.272;17.780;2022-11-06T04:17:14;4.27;;;1.20;;
17235;SDS011;8734;59.272;17.780;2022-11-06T04:19:45;10.07;;;2.20;;
17235;SDS011;8734;59.272;17.780;2022-11-06T04:22:20;10.97;;;1.27;;
17235;SDS011;8734;59.272;17.780;2022-11-06T04:24:58;9.00;;;1.77;;
17235;SDS011;8734;59.272;17.780;2022-11-06T04:27:55;5.10;;;1.63;;
17235;SDS011;8734;59.272;17.780;2022-11-06T04:30:37;9.07;;;1.43;;
17235;SDS011;8734;59.272;17.780;2022-11-06T04:33:13;4.70;;;1.30;;
17235;SDS011;8734;59.272;17.780;2022-11-06T04:35:48;8.23;;;1.43;;
17235;SDS011;8734;59.272;17.780;2022-11-06T04:38:26;10.50;;;1.67;;
17235;SDS011;8734;59.272;17.780;2022-11-06T04:41:02;13.03;;;1.33;;
17235;SDS011;8734;59.272;17.780;2022-11-06T04:43:39;3.90;;;1.47;;
17235;SDS011;8734;59.272;17.780;2022-11-06T04:46:13;4.17;;;1.27;;
17235;SDS011;8734;59.272;17.780;2022-11-06T04:48:46;10.30;;;1.77;;
17235;SDS011;8734;59.272;17.780;2022-11-06T04:51:15;3.70;;;1.70;;
17235;SDS011;8734;59.272;17.780;2022-11-06T04:53:48;3.43;;;1.40;;
17235;SDS011;8734;59.272;17.780;2022-11-06T04:56:22;10.47;;;1.63;;
17235;SDS011;8734;59.272;17.780;2022-11-06T04:59:00;7.10;;;1.30;;
17235;SDS011;8734;59.272;17.780;2022-11-06T05:01:30;13.17;;;1.73;;
17235;SDS011;8734;59.272;17.780;2022-11-06T05:03:58;8.57;;;1.20;;
17235;SDS011;8734;59.272;17.780;2022-11-06T05:06:27;9.13;;;1.60;;
17235;SDS011;8734;59.272;17.780;2022-11-06T05:08:55;3.00;;;1.60;;
17235;SDS011;8734;59.272;17.780;2022-11-06T05:11:24;11.53;;;1.67;;
17235;SDS011;8734;59.272;17.780;2022-11-06T05:13:52;2.93;;;0.97;;
17235;SDS011;8734;59.272;17.780;2022-11-06T05:16:21;7.30;;;1.50;;
17235;SDS011;8734;59.272;17.780;2022-11-06T05:18:50;2.93;;;1.20;;
17235;SDS011;8734;59.272;17.780;2022-11-06T05:21:18;10.03;;;1.67;;
17235;SDS011;8734;59.272;17.780;2022-11-06T05:24:04;4.73;;;1.40;;
17235;SDS011;8734;59.272;17.780;2022-11-06T05:26:33;5.03;;;1.43;;
17235;SDS011;8734;59.272;17.780;2022-11-06T05:29:01;6.07;;;1.40;;
17235;SDS011;8734;59.272;17.780;2022-11-06T05:31:30;6.97;;;2.27;;
17235;SDS011;8734;59.272;17.780;2022-11-06T05:33:59;2.87;;;1.50;;
17235;SDS011;8734;59.272;17.780;2022-11-06T05:36:27;7.67;;;2.03;;
17235;SDS011;8734;59.272;17.780;2022-11-06T05:38:56;15.50;;;3.87;;
17235;SDS011;8734;59.272;17.780;2022-11-06T05:41:24;12.53;;;2.80;;
17235;SDS011;8734;59.272;17.780;2022-11-06T05:43:52;3.97;;;2.40;;
17235;SDS011;8734;59.272;17.780;2022-11-06T05:46:20;10.30;;;2.47;;
17235;SDS011;8734;59.272;17.780;2022-11-06T05:49:10;8.03;;;2.70;;
17235;SDS011;8734;59.272;17.780;2022-11-06T05:51:39;13.17;;;3.00;;
17235;SDS011;8734;59.272;17.780;2022-11-06T05:54:07;6.10;;;1.67;;
17235;SDS011;8734;59.272;17.780;2022-11-06T05:56:35;12.53;;;2.00;;
17235;SDS011;8734;59.272;17.780;2022-11-06T05:59:03;8.60;;;2.00;;
17235;SDS011;8734;59.272;17.780;2022-11-06T06:01:31;8.27;;;1.90;;
17235;SDS011;8734;59.272;17.780;2022-11-06T06:04:00;9.20;;;2.20;;
17235;SDS011;8734;59.272;17.780;2022-11-06T06:06:29;7.97;;;1.70;;
17235;SDS011;8734;59.272;17.780;2022-11-06T06:08:58;16.00;;;1.70;;
17235;SDS011;8734;59.272;17.780;2022-11-06T06:11:26;7.23;;;1.63;;
17235;SDS011;8734;59.272;17.780;2022-11-06T06:13:54;8.70;;;1.67;;
17235;SDS011;8734;59.272;17.780;2022-11-06T06:16:22;3.40;;;1.50;;
17235;SDS011;8734;59.272;17.780;2022-11-06T06:18:50;2.90;;;1.00;;
17235;SDS011;8734;59.272;17.780;2022-11-06T06:21:19;8.53;;;1.40;;
17235;SDS011;8734;59.272;17.780;2022-11-06T06:23:48;3.90;;;1.93;;
17235;SDS011;8734;59.272;17.780;2022-11-06T06:26:16;6.03;;;1.67;;
17235;SDS011;8734;59.272;17.780;2022-11-06T06:28:46;5.37;;;1.60;;
17235;SDS011;8734;59.272;17.780;2022-11-06T06:31:15;5.20;;;1.50;;
17235;SDS011;8734;59.272;17.780;2022-11-06T06:33:43;4.50;;;1.40;;
17235;SDS011;8734;59.272;17.780;2022-11-06T06:36:12;6.27;;;1.47;;
17235;SDS011;8734;59.272;17.780;2022-11-06T06:38:40;6.47;;;1.73;;
17235;SDS011;8734;59.272;17.780;2022-11-06T06:41:10;4.37;;;1.70;;
17235;SDS011;8734;59.272;17.780;2022-11-06T06:43:38;4.40;;;1.70;;
17235;SDS011;8734;59.272;17.780;2022-11-06T06:46:06;4.77;;;1.43;;
17235;SDS011;8734;59.272;17.780;2022-11-06T06:48:35;7.23;;;1.87;;
17235;SDS011;8734;59.272;17.780;2022-11-06T06:51:03;3.80;;;1.30;;
17235;SDS011;8734;59.272;17.780;2022-11-06T06:53:33;8.03;;;1.50;;
17235;SDS011;8734;59.272;17.780;2022-11-06T06:56:02;5.27;;;1.70;;
17235;SDS011;8734;59.272;17.780;2022-11-06T06:58:32;6.23;;;1.70;;
17235;SDS011;8734;59.272;17.780;2022-11-06T07:01:00;2.70;;;1.67;;
17235;SDS011;8734;59.272;17.780;2022-11-06T07:03:30;5.60;;;1.50;;
17235;SDS011;8734;59.272;17.780;2022-11-06T07:05:59;9.60;;;2.57;;
17235;SDS011;8734;59.272;17.780;2022-11-06T07:08:27;5.20;;;1.70;;
17235;SDS011;8734;59.272;17.780;2022-11-06T07:10:59;5.77;;;1.50;;
17235;SDS011;8734;59.272;17.780;2022-11-06T07:13:27;5.70;;;1.53;;
17235;SDS011;8734;59.272;17.780;2022-11-06T07:16:02;4.20;;;1.50;;
17235;SDS011;8734;59.272;17.780;2022-11-06T07:18:31;5.37;;;1.57;;
17235;SDS011;8734;59.272;17.780;2022-11-06T07:20:59;2.20;;;1.63;;
17235;SDS011;8734;59.272;17.780;2022-11-06T07:23:30;8.53;;;1.93;;
17235;SDS011;8734;59.272;17.780;2022-11-06T07:25:59;8.23;;;1.63;;
17235;SDS011;8734;59.272;17.780;2022-11-06T07:28:28;11.73;;;2.00;;
17235;SDS011;8734;59.272;17.780;2022-11-06T07:30:56;7.13;;;1.80;;
17235;SDS011;8734;59.272;17.780;2022-11-06T07:33:27;6.47;;;2.07;;
17235;SDS011;8734;59.272;17.780;2022-11-06T07:36:00;6.97;;;1.70;;
17235;SDS011;8734;59.272;17.780;2022-11-06T07:38:30;6.50;;;1.77;;
17235;SDS011;8734;59.272;17.780;2022-11-06T07:41:00;14.80;;;2.27;;
17235;SDS011;8734;59.272;17.780;2022-11-06T07:43:29;4.17;;;1.70;;
17235;SDS011;8734;59.272;17.780;2022-11-06T07:45:59;4.20;;;2.00;;
17235;SDS011;8734;59.272;17.780;2022-11-06T07:48:29;7.33;;;2.20;;
17235;SDS011;8734;59.272;17.780;2022-11-06T07:51:00;6.37;;;1.97;;
17235;SDS011;8734;59.272;17.780;2022-11-06T07:53:29;7.70;;;2.37;;
17235;SDS011;8734;59.272;17.780;2022-11-06T07:55:58;7.00;;;2.10;;
17235;SDS011;8734;59.272;17.780;2022-11-06T07:58:27;7.20;;;2.50;;
17235;SDS011;8734;59.272;17.780;2022-11-06T08:00:56;5.60;;;2.20;;
17235;SDS011;8734;59.272;17.780;2022-11-06T08:03:25;4.07;;;2.13;;
17235;SDS011;8734;59.272;17.780;2022-11-06T08:05:57;7.53;;;2.23;;
17235;SDS011;8734;59.272;17.780;2022-11-06T08:08:26;6.37;;;2.00;;
17235;SDS011;8734;59.272;17.780;2022-11-06T08:10:54;6.83;;;2.60;;
17235;SDS011;8734;59.272;17.780;2022-11-06T08:13:23;12.60;;;2.40;;
17235;SDS011;8734;59.272;17.780;2022-11-06T08:15:52;10.07;;;2.20;;
17235;SDS011;8734;59.272;17.780;2022-11-06T08:18:20;2.63;;;1.17;;
17235;SDS011;8734;59.272;17.780;2022-11-06T08:20:51;4.93;;;2.07;;
17235;SDS011;8734;59.272;17.780;2022-11-06T08:23:21;9.10;;;2.20;;
17235;SDS011;8734;59.272;17.780;2022-11-06T08:25:52;3.97;;;2.13;;
17235;SDS011;8734;59.272;17.780;2022-11-06T08:28:21;5.17;;;1.90;;
17235;SDS011;8734;59.272;17.780;2022-11-06T08:30:49;10.27;;;2.90;;
17235;SDS011;8734;59.272;17.780;2022-11-06T08:33:17;7.77;;;2.17;;
17235;SDS011;8734;59.272;17.780;2022-11-06T08:35:46;7.37;;;2.10;;
17235;SDS011;8734;59.272;17.780;2022-11-06T08:38:15;10.63;;;2.23;;
17235;SDS011;8734;59.272;17.780;2022-11-06T08:40:45;4.93;;;1.90;;
17235;SDS011;8734;59.272;17.780;2022-11-06T08:43:18;3.43;;;2.03;;
17235;SDS011;8734;59.272;17.780;2022-11-06T08:45:49;7.87;;;1.60;;
17235;SDS011;8734;59.272;17.780;2022-11-06T08:48:17;9.00;;;2.20;;
17235;SDS011;8734;59.272;17.780;2022-11-06T08:50:46;7.37;;;2.30;;
17235;SDS011;8734;59.272;17.780;2022-11-06T08:53:14;2.53;;;1.90;;
17235;SDS011;8734;59.272;17.780;2022-11-06T08:55:44;6.70;;;2.50;;
17235;SDS011;8734;59.272;17.780;2022-11-06T08:58:13;9.37;;;2.10;;
17235;SDS011;8734;59.272;17.780;2022-11-06T09:00:42;4.07;;;2.00;;
17235;SDS011;8734;59.272;17.780;2022-11-06T09:03:11;3.13;;;1.80;;
17235;SDS011;8734;59.272;17.780;2022-11-06T09:05:42;6.03;;;1.83;;
17235;SDS011;8734;59.272;17.780;2022-11-06T09:08:11;2.50;;;1.33;;
17235;SDS011;8734;59.272;17.780;2022-11-06T09:10:40;6.10;;;1.93;;
17235;SDS011;8734;59.272;17.780;2022-11-06T09:13:11;5.40;;;1.50;;
17235;SDS011;8734;59.272;17.780;2022-11-06T09:15:39;2.90;;;1.20;;
17235;SDS011;8734;59.272;17.780;2022-11-06T09:18:09;5.97;;;1.47;;
17235;SDS011;8734;59.272;17.780;2022-11-06T09:20:38;6.50;;;1.43;;
17235;SDS011;8734;59.272;17.780;2022-11-06T09:23:07;6.73;;;1.60;;
17235;SDS011;8734;59.272;17.780;2022-11-06T09:25:36;6.83;;;1.77;;
17235;SDS011;8734;59.272;17.780;2022-11-06T09:28:04;3.87;;;1.57;;
17235;SDS011;8734;59.272;17.780;2022-11-06T09:30:34;4.80;;;1.87;;
17235;SDS011;8734;59.272;17.780;2022-11-06T09:33:02;8.13;;;1.87;;
17235;SDS011;8734;59.272;17.780;2022-11-06T09:35:38;4.93;;;1.43;;
17235;SDS011;8734;59.272;17.780;2022-11-06T09:38:07;11.03;;;1.60;;
17235;SDS011;8734;59.272;17.780;2022-11-06T09:40:38;4.07;;;1.63;;
17235;SDS011;8734;59.272;17.780;2022-11-06T09:43:21;4.33;;;1.50;;
17235;SDS011;8734;59.272;17.780;2022-11-06T09:46:31;5.20;;;1.60;;
17235;SDS011;8734;59.272;17.780;2022-11-06T09:49:04;3.40;;;1.53;;
17235;SDS011;8734;59.272;17.780;2022-11-06T09:51:37;14.43;;;2.57;;
17235;SDS011;8734;59.272;17.780;2022-11-06T09:54:11;11.20;;;1.93;;
17235;SDS011;8734;59.272;17.780;2022-11-06T09:56:43;6.10;;;1.97;;
17235;SDS011;8734;59.272;17.780;2022-11-06T09:59:15;6.57;;;1.57;;
17235;SDS011;8734;59.272;17.780;2022-11-06T10:01:49;12.00;;;1.77;;
17235;SDS011;8734;59.272;17.780;2022-11-06T10:04:23;9.13;;;1.70;;
17235;SDS011;8734;59.272;17.780;2022-11-06T10:06:57;5.10;;;1.83;;
17235;SDS011;8734;59.272;17.780;2022-11-06T10:09:25;7.70;;;1.83;;
17235;SDS011;8734;59.272;17.780;2022-11-06T10:11:57;6.13;;;1.60;;
17235;SDS011;8734;59.272;17.780;2022-11-06T10:14:37;8.17;;;1.70;;
17235;SDS011;8734;59.272;17.780;2022-11-06T10:17:17;5.57;;;1.90;;
17235;SDS011;8734;59.272;17.780;2022-11-06T10:19:54;5.97;;;2.07;;
17235;SDS011;8734;59.272;17.780;2022-11-06T10:22:28;5.67;;;2.20;;
17235;SDS011;8734;59.272;17.780;2022-11-06T10:25:04;5.30;;;2.03;;
17235;SDS011;8734;59.272;17.780;2022-11-06T10:27:47;6.43;;;2.30;;
17235;SDS011;8734;59.272;17.780;2022-11-06T10:30:25;8.37;;;2.50;;
17235;SDS011;8734;59.272;17.780;2022-11-06T10:33:14;5.27;;;2.10;;
17235;SDS011;8734;59.272;17.780;2022-11-06T10:35:52;7.50;;;2.80;;
17235;SDS011;8734;59.272;17.780;2022-11-06T10:38:26;3.87;;;2.03;;
17235;SDS011;8734;59.272;17.780;2022-11-06T10:40:56;10.43;;;3.00;;
17235;SDS011;8734;59.272;17.780;2022-11-06T10:43:26;7.23;;;2.57;;
17235;SDS011;8734;59.272;17.780;2022-11-06T10:46:00;10.00;;;2.10;;
17235;SDS011;8734;59.272;17.780;2022-11-06T10:48:39;5.27;;;1.63;;
17235;SDS011;8734;59.272;17.780;2022-11-06T10:51:18;8.80;;;2.10;;
17235;SDS011;8734;59.272;17.780;2022-11-06T10:53:57;3.00;;;1.50;;
17235;SDS011;8734;59.272;17.780;2022-11-06T10:56:41;4.60;;;1.90;;
17235;SDS011;8734;59.272;17.780;2022-11-06T10:59:17;5.43;;;2.23;;
17235;SDS011;8734;59.272;17.780;2022-11-06T11:01:46;8.80;;;1.87;;
17235;SDS011;8734;59.272;17.780;2022-11-06T11:04:16;7.20;;;2.30;;
17235;SDS011;8734;59.272;17.780;2022-11-06T11:06:44;8.70;;;2.60;;
17235;SDS011;8734;59.272;17.780;2022-11-06T11:09:25;5.63;;;1.63;;
17235;SDS011;8734;59.272;17.780;2022-11-06T11:11:55;4.33;;;1.93;;
17235;SDS011;8734;59.272;17.780;2022-11-06T11:14:24;3.73;;;2.10;;
17235;SDS011;8734;59.272;17.780;2022-11-06T11:16:54;9.83;;;2.03;;
17235;SDS011;8734;59.272;17.780;2022-11-06T11:19:33;4.43;;;2.03;;
17235;SDS011;8734;59.272;17.780;2022-11-06T11:22:03;6.30;;;1.70;;
17235;SDS011;8734;59.272;17.780;2022-11-06T11:24:56;14.20;;;2.40;;
17235;SDS011;8734;59.272;17.780;2022-11-06T11:27:27;8.23;;;2.07;;
17235;SDS011;8734;59.272;17.780;2022-11-06T11:29:56;7.63;;;2.33;;
17235;SDS011;8734;59.272;17.780;2022-11-06T11:32:24;7.67;;;2.30;;
17235;SDS011;8734;59.272;17.780;2022-11-06T11:34:58;7.97;;;2.57;;
17235;SDS011;8734;59.272;17.780;2022-11-06T11:37:28;5.20;;;2.13;;
17235;SDS011;8734;59.272;17.780;2022-11-06T11:42:46;10.27;;;2.90;;
17235;SDS011;8734;59.272;17.780;2022-11-06T11:45:15;11.73;;;2.43;;
17235;SDS011;8734;59.272;17.780;2022-11-06T11:47:45;7.10;;;2.40;;
17235;SDS011;8734;59.272;17.780;2022-11-06T11:50:24;8.73;;;2.80;;
17235;SDS011;8734;59.272;17.780;2022-11-06T11:52:58;6.33;;;3.40;;
17235;SDS011;8734;59.272;17.780;2022-11-06T11:55:35;7.47;;;2.67;;
17235;SDS011;8734;59.272;17.780;2022-11-06T11:58:14;7.80;;;2.40;;
17235;SDS011;8734;59.272;17.780;2022-11-06T12:00:50;8.40;;;3.33;;
17235;SDS011;8734;59.272;17.780;2022-11-06T12:03:20;10.67;;;2.43;;
17235;SDS011;8734;59.272;17.780;2022-11-06T12:05:54;10.30;;;2.97;;
17235;SDS011;8734;59.272;17.780;2022-11-06T12:08:32;6.37;;;3.00;;
17235;SDS011;8734;59.272;17.780;2022-11-06T12:11:01;7.43;;;3.00;;
17235;SDS011;8734;59.272;17.780;2022-11-06T12:13:31;6.73;;;2.73;;
17235;SDS011;8734;59.272;17.780;2022-11-06T12:16:01;7.07;;;3.40;;
17235;SDS011;8734;59.272;17.780;2022-11-06T12:18:32;3.80;;;2.13;;
17235;SDS011;8734;59.272;17.780;2022-11-06T12:21:04;10.20;;;3.60;;
17235;SDS011;8734;59.272;17.780;2022-11-06T12:23:36;9.40;;;3.77;;
17235;SDS011;8734;59.272;17.780;2022-11-06T12:26:11;8.37;;;3.30;;
17235;SDS011;8734;59.272;17.780;2022-11-06T12:28:46;8.70;;;3.40;;
17235;SDS011;8734;59.272;17.780;2022-11-06T12:31:31;8.63;;;3.63;;
17235;SDS011;8734;59.272;17.780;2022-11-06T12:34:04;6.40;;;2.20;;
17235;SDS011;8734;59.272;17.780;2022-11-06T12:36:44;9.50;;;3.33;;
17235;SDS011;8734;59.272;17.780;2022-11-06T12:39:21;9.07;;;2.83;;
17235;SDS011;8734;59.272;17.780;2022-11-06T12:41:53;5.90;;;3.00;;
17235;SDS011;8734;59.272;17.780;2022-11-06T12:44:23;8.40;;;3.20;;
17235;SDS011;8734;59.272;17.780;2022-11-06T12:46:52;9.77;;;2.87;;
17235;SDS011;8734;59.272;17.780;2022-11-06T12:52:40;11.93;;;3.77;;
17235;SDS011;8734;59.272;17.780;2022-11-06T12:55:20;10.07;;;3.60;;
17235;SDS011;8734;59.272;17.780;2022-11-06T12:57:56;4.30;;;2.70;;
17235;SDS011;8734;59.272;17.780;2022-11-06T13:00:56;12.13;;;3.83;;
17235;SDS011;8734;59.272;17.780;2022-11-06T13:06:54;10.57;;;4.23;;
17235;SDS011;8734;59.272;17.780;2022-11-06T13:09:43;8.20;;;3.10;;
17235;SDS011;8734;59.272;17.780;2022-11-06T13:12:21;11.90;;;4.30;;
17235;SDS011;8734;59.272;17.780;2022-11-06T13:14:59;17.83;;;4.33;;
17235;SDS011;8734;59.272;17.780;2022-11-06T13:17:36;11.13;;;3.57;;
17235;SDS011;8734;59.272;17.780;2022-11-06T13:20:13;12.27;;;4.53;;
17235;SDS011;8734;59.272;17.780;2022-11-06T13:22:49;5.80;;;3.20;;
17235;SDS011;8734;59.272;17.780;2022-11-06T13:25:21;8.43;;;3.10;;
17235;SDS011;8734;59.272;17.780;2022-11-06T13:27:55;16.33;;;4.80;;
17235;SDS011;8734;59.272;17.780;2022-11-06T13:30:27;12.60;;;4.43;;
17235;SDS011;8734;59.272;17.780;2022-11-06T13:32:59;6.17;;;3.20;;
17235;SDS011;8734;59.272;17.780;2022-11-06T13:35:33;9.17;;;3.80;;
17235;SDS011;8734;59.272;17.780;2022-11-06T13:38:06;9.00;;;2.87;;
17235;SDS011;8734;59.272;17.780;2022-11-06T13:40:42;11.40;;;3.13;;
17235;SDS011;8734;59.272;17.780;2022-11-06T13:43:14;8.93;;;3.80;;
17235;SDS011;8734;59.272;17.780;2022-11-06T13:45:47;6.77;;;3.23;;
17235;SDS011;8734;59.272;17.780;2022-11-06T13:48:26;7.23;;;2.97;;
17235;SDS011;8734;59.272;17.780;2022-11-06T13:51:03;7.53;;;3.20;;
17235;SDS011;8734;59.272;17.780;2022-11-06T13:53:41;11.33;;;3.60;;
17235;SDS011;8734;59.272;17.780;2022-11-06T13:56:22;6.03;;;2.67;;
17235;SDS011;8734;59.272;17.780;2022-11-06T14:08:13;8.23;;;3.30;;
17235;SDS011;8734;59.272;17.780;2022-11-06T14:10:47;7.13;;;3.43;;
17235;SDS011;8734;59.272;17.780;2022-11-06T14:13:25;6.90;;;3.10;;
17235;SDS011;8734;59.272;17.780;2022-11-06T14:16:03;10.10;;;3.10;;
17235;SDS011;8734;59.272;17.780;2022-11-06T14:27:09;17.27;;;3.40;;
17235;SDS011;8734;59.272;17.780;2022-11-06T14:38:18;7.10;;;2.20;;
17235;SDS011;8734;59.272;17.780;2022-11-06T14:41:49;10.17;;;3.10;;
17235;SDS011;8734;59.272;17.780;2022-11-06T14:44:24;8.93;;;2.83;;
17235;SDS011;8734;59.272;17.780;2022-11-06T14:47:22;6.90;;;2.67;;
17235;SDS011;8734;59.272;17.780;2022-11-06T14:50:00;16.93;;;2.77;;
17235;SDS011;8734;59.272;17.780;2022-11-06T14:52:38;10.13;;;3.20;;
17235;SDS011;8734;59.272;17.780;2022-11-06T14:55:20;3.80;;;2.20;;
17235;SDS011;8734;59.272;17.780;2022-11-06T14:57:54;4.50;;;2.37;;
17235;SDS011;8734;59.272;17.780;2022-11-06T15:00:32;11.23;;;2.53;;
17235;SDS011;8734;59.272;17.780;2022-11-06T15:03:16;8.63;;;2.23;;
17235;SDS011;8734;59.272;17.780;2022-11-06T15:05:52;8.73;;;3.03;;
17235;SDS011;8734;59.272;17.780;2022-11-06T15:17:24;11.27;;;3.57;;
17235;SDS011;8734;59.272;17.780;2022-11-06T15:19:58;8.67;;;2.77;;
17235;SDS011;8734;59.272;17.780;2022-11-06T15:22:39;9.17;;;2.70;;
17235;SDS011;8734;59.272;17.780;2022-11-06T15:25:20;9.50;;;3.30;;
17235;SDS011;8734;59.272;17.780;2022-11-06T15:27:52;4.63;;;1.97;;
17235;SDS011;8734;59.272;17.780;2022-11-06T15:30:25;9.63;;;2.57;;
17235;SDS011;8734;59.272;17.780;2022-11-06T15:32:56;3.83;;;2.10;;
17235;SDS011;8734;59.272;17.780;2022-11-06T15:35:32;8.37;;;2.43;;
17235;SDS011;8734;59.272;17.780;2022-11-06T15:38:03;5.40;;;2.77;;
17235;SDS011;8734;59.272;17.780;2022-11-06T15:40:37;12.73;;;2.77;;
17235;SDS011;8734;59.272;17.780;2022-11-06T15:43:08;14.47;;;2.73;;
17235;SDS011;8734;59.272;17.780;2022-11-06T15:46:00;10.27;;;2.60;;
17235;SDS011;8734;59.272;17.780;2022-11-06T15:48:33;7.80;;;2.40;;
17235;SDS011;8734;59.272;17.780;2022-11-06T15:51:03;5.90;;;2.40;;
17235;SDS011;8734;59.272;17.780;2022-11-06T15:53:45;6.10;;;2.20;;
17235;SDS011;8734;59.272;17.780;2022-11-06T15:56:13;6.57;;;2.77;;
17235;SDS011;8734;59.272;17.780;2022-11-06T15:58:44;7.77;;;2.20;;
17235;SDS011;8734;59.272;17.780;2022-11-06T16:01:13;7.30;;;2.20;;
17235;SDS011;8734;59.272;17.780;2022-11-06T16:03:58;5.43;;;2.50;;